sensor_id;sensor_type;location;lat;lon;timestamp;temperature;humidity
42141;DHT22;27809;51.864;5.646;2023-04-08T00:00:36;7.70;99.90
42141;DHT22;27809;51.864;5.646;2023-04-08T00:03:01;7.70;99.90
42141;DHT22;27809;51.864;5.646;2023-04-08T00:05:27;7.60;99.90
42141;DHT22;27809;51.864;5.646;2023-04-08T00:07:53;7.60;99.90
42141;DHT22;27809;51.864;5.646;2023-04-08T00:10:18;7.50;99.90
42141;DHT22;27809;51.864;5.646;2023-04-08T00:12:45;7.40;99.90
42141;DHT22;27809;51.864;5.646;2023-04-08T00:15:11;7.30;99.90
42141;DHT22;27809;51.864;5.646;2023-04-08T00:17:36;7.40;99.90
42141;DHT22;27809;51.864;5.646;2023-04-08T00:20:02;7.30;99.90
42141;DHT22;27809;51.864;5.646;2023-04-08T00:22:28;7.30;99.90
42141;DHT22;27809;51.864;5.646;2023-04-08T00:24:54;7.40;99.90
42141;DHT22;27809;51.864;5.646;2023-04-08T00:27:20;7.40;99.90
42141;DHT22;27809;51.864;5.646;2023-04-08T00:29:45;7.30;99.90
42141;DHT22;27809;51.864;5.646;2023-04-08T00:32:11;7.20;99.90
42141;DHT22;27809;51.864;5.646;2023-04-08T00:34:36;7.20;99.90
42141;DHT22;27809;51.864;5.646;2023-04-08T00:37:02;7.20;99.90
42141;DHT22;27809;51.864;5.646;2023-04-08T00:39:28;7.20;99.90
42141;DHT22;27809;51.864;5.646;2023-04-08T00:41:53;7.20;99.90
42141;DHT22;27809;51.864;5.646;2023-04-08T00:44:20;7.20;99.90
42141;DHT22;27809;51.864;5.646;2023-04-08T00:46:46;7.30;99.90
42141;DHT22;27809;51.864;5.646;2023-04-08T00:49:12;7.20;99.90
42141;DHT22;27809;51.864;5.646;2023-04-08T00:51:38;7.30;99.90
42141;DHT22;27809;51.864;5.646;2023-04-08T00:54:03;7.30;99.90
42141;DHT22;27809;51.864;5.646;2023-04-08T00:56:30;7.40;99.90
42141;DHT22;27809;51.864;5.646;2023-04-08T00:58:58;7.40;99.90
42141;DHT22;27809;51.864;5.646;2023-04-08T01:01:31;7.40;99.90
42141;DHT22;27809;51.864;5.646;2023-04-08T01:09:36;7.40;99.90
42141;DHT22;27809;51.864;5.646;2023-04-08T01:12:05;7.30;99.90
42141;DHT22;27809;51.864;5.646;2023-04-08T01:14:34;7.40;99.90
42141;DHT22;27809;51.864;5.646;2023-04-08T01:17:03;7.40;99.90
42141;DHT22;27809;51.864;5.646;2023-04-08T01:19:33;7.30;99.90
42141;DHT22;27809;51.864;5.646;2023-04-08T01:22:13;7.40;99.90
42141;DHT22;27809;51.864;5.646;2023-04-08T01:24:43;7.30;99.90
42141;DHT22;27809;51.864;5.646;2023-04-08T01:27:10;7.30;99.90
42141;DHT22;27809;51.864;5.646;2023-04-08T01:29:36;7.20;99.90
42141;DHT22;27809;51.864;5.646;2023-04-08T01:32:03;7.30;99.90
42141;DHT22;27809;51.864;5.646;2023-04-08T01:34:31;7.30;99.90
42141;DHT22;27809;51.864;5.646;2023-04-08T01:36:57;7.30;99.90
42141;DHT22;27809;51.864;5.646;2023-04-08T01:39:23;7.30;99.90
42141;DHT22;27809;51.864;5.646;2023-04-08T01:41:50;7.20;99.90
42141;DHT22;27809;51.864;5.646;2023-04-08T01:44:19;7.10;99.90
42141;DHT22;27809;51.864;5.646;2023-04-08T01:46:46;7.20;99.90
42141;DHT22;27809;51.864;5.646;2023-04-08T01:49:14;7.20;99.90
42141;DHT22;27809;51.864;5.646;2023-04-08T01:51:40;7.20;99.90
42141;DHT22;27809;51.864;5.646;2023-04-08T01:54:05;7.30;99.90
42141;DHT22;27809;51.864;5.646;2023-04-08T01:56:36;7.20;99.90
42141;DHT22;27809;51.864;5.646;2023-04-08T01:59:05;7.20;99.90
42141;DHT22;27809;51.864;5.646;2023-04-08T02:01:34;7.20;99.90
42141;DHT22;27809;51.864;5.646;2023-04-08T02:04:01;7.10;99.90
42141;DHT22;27809;51.864;5.646;2023-04-08T02:06:27;7.00;99.90
42141;DHT22;27809;51.864;5.646;2023-04-08T02:08:54;7.00;99.90
42141;DHT22;27809;51.864;5.646;2023-04-08T02:11:20;6.90;99.90
42141;DHT22;27809;51.864;5.646;2023-04-08T02:13:46;6.90;99.90
42141;DHT22;27809;51.864;5.646;2023-04-08T02:16:22;6.90;99.90
42141;DHT22;27809;51.864;5.646;2023-04-08T02:19:09;6.90;99.90
42141;DHT22;27809;51.864;5.646;2023-04-08T02:21:43;6.90;99.90
42141;DHT22;27809;51.864;5.646;2023-04-08T02:24:12;7.00;99.90
42141;DHT22;27809;51.864;5.646;2023-04-08T02:26:38;6.90;99.90
42141;DHT22;27809;51.864;5.646;2023-04-08T02:29:04;6.90;99.90
42141;DHT22;27809;51.864;5.646;2023-04-08T02:31:33;7.00;99.90
42141;DHT22;27809;51.864;5.646;2023-04-08T02:33:59;7.10;99.90
42141;DHT22;27809;51.864;5.646;2023-04-08T02:36:25;7.00;99.90
42141;DHT22;27809;51.864;5.646;2023-04-08T02:38:51;7.00;99.90
42141;DHT22;27809;51.864;5.646;2023-04-08T02:41:17;7.00;99.90
42141;DHT22;27809;51.864;5.646;2023-04-08T02:43:42;6.90;99.90
42141;DHT22;27809;51.864;5.646;2023-04-08T02:46:08;6.90;99.90
42141;DHT22;27809;51.864;5.646;2023-04-08T02:48:35;6.90;99.90
42141;DHT22;27809;51.864;5.646;2023-04-08T02:51:01;6.80;99.90
42141;DHT22;27809;51.864;5.646;2023-04-08T02:53:26;6.90;99.90
42141;DHT22;27809;51.864;5.646;2023-04-08T02:55:52;6.70;99.90
42141;DHT22;27809;51.864;5.646;2023-04-08T02:58:17;6.70;99.90
42141;DHT22;27809;51.864;5.646;2023-04-08T03:00:43;6.80;99.90
42141;DHT22;27809;51.864;5.646;2023-04-08T03:03:08;6.70;99.90
42141;DHT22;27809;51.864;5.646;2023-04-08T03:05:34;6.80;99.90
42141;DHT22;27809;51.864;5.646;2023-04-08T03:08:00;6.90;99.90
42141;DHT22;27809;51.864;5.646;2023-04-08T03:10:25;6.70;99.90
42141;DHT22;27809;51.864;5.646;2023-04-08T03:12:51;6.70;99.90
42141;DHT22;27809;51.864;5.646;2023-04-08T03:15:17;6.80;99.90
42141;DHT22;27809;51.864;5.646;2023-04-08T03:17:42;6.80;99.90
42141;DHT22;27809;51.864;5.646;2023-04-08T03:20:08;6.80;99.90
42141;DHT22;27809;51.864;5.646;2023-04-08T03:22:35;6.90;99.90
42141;DHT22;27809;51.864;5.646;2023-04-08T03:25:00;6.90;99.90
42141;DHT22;27809;51.864;5.646;2023-04-08T03:27:26;6.80;99.90
42141;DHT22;27809;51.864;5.646;2023-04-08T03:29:51;6.70;99.90
42141;DHT22;27809;51.864;5.646;2023-04-08T03:32:17;6.50;99.90
42141;DHT22;27809;51.864;5.646;2023-04-08T03:34:43;6.60;99.90
42141;DHT22;27809;51.864;5.646;2023-04-08T03:37:09;6.60;99.90
42141;DHT22;27809;51.864;5.646;2023-04-08T03:39:34;6.50;99.90
42141;DHT22;27809;51.864;5.646;2023-04-08T03:42:00;6.50;99.90
42141;DHT22;27809;51.864;5.646;2023-04-08T03:44:27;6.50;99.90
42141;DHT22;27809;51.864;5.646;2023-04-08T03:46:53;6.40;99.90
42141;DHT22;27809;51.864;5.646;2023-04-08T03:49:18;6.30;99.90
42141;DHT22;27809;51.864;5.646;2023-04-08T03:51:44;6.40;99.90
42141;DHT22;27809;51.864;5.646;2023-04-08T03:54:09;6.40;99.90
42141;DHT22;27809;51.864;5.646;2023-04-08T03:56:35;6.30;99.90
42141;DHT22;27809;51.864;5.646;2023-04-08T03:59:00;6.20;99.90
42141;DHT22;27809;51.864;5.646;2023-04-08T04:01:26;6.20;99.90
42141;DHT22;27809;51.864;5.646;2023-04-08T04:03:51;6.30;99.90
42141;DHT22;27809;51.864;5.646;2023-04-08T04:06:17;6.20;99.90
42141;DHT22;27809;51.864;5.646;2023-04-08T04:08:42;6.20;99.90
42141;DHT22;27809;51.864;5.646;2023-04-08T04:11:08;6.30;99.90
42141;DHT22;27809;51.864;5.646;2023-04-08T04:13:33;6.20;99.90
42141;DHT22;27809;51.864;5.646;2023-04-08T04:15:59;6.20;99.90
42141;DHT22;27809;51.864;5.646;2023-04-08T04:18:24;6.30;99.90
42141;DHT22;27809;51.864;5.646;2023-04-08T04:20:50;6.30;99.90
42141;DHT22;27809;51.864;5.646;2023-04-08T04:23:15;6.10;99.90
42141;DHT22;27809;51.864;5.646;2023-04-08T04:25:41;6.20;99.90
42141;DHT22;27809;51.864;5.646;2023-04-08T04:28:07;6.20;99.90
42141;DHT22;27809;51.864;5.646;2023-04-08T04:30:36;6.00;99.90
42141;DHT22;27809;51.864;5.646;2023-04-08T04:33:03;6.20;99.90
42141;DHT22;27809;51.864;5.646;2023-04-08T04:35:28;6.10;99.90
42141;DHT22;27809;51.864;5.646;2023-04-08T04:37:54;6.10;99.90
42141;DHT22;27809;51.864;5.646;2023-04-08T04:40:19;6.00;99.90
42141;DHT22;27809;51.864;5.646;2023-04-08T04:42:45;6.00;99.90
42141;DHT22;27809;51.864;5.646;2023-04-08T04:45:11;6.00;99.90
42141;DHT22;27809;51.864;5.646;2023-04-08T04:47:36;6.00;99.90
42141;DHT22;27809;51.864;5.646;2023-04-08T04:50:02;5.90;99.90
42141;DHT22;27809;51.864;5.646;2023-04-08T04:52:28;6.00;99.90
42141;DHT22;27809;51.864;5.646;2023-04-08T04:54:53;6.00;99.90
42141;DHT22;27809;51.864;5.646;2023-04-08T04:57:19;5.90;99.90
42141;DHT22;27809;51.864;5.646;2023-04-08T04:59:44;5.90;99.90
42141;DHT22;27809;51.864;5.646;2023-04-08T05:02:10;6.00;99.90
42141;DHT22;27809;51.864;5.646;2023-04-08T05:04:35;5.90;99.90
42141;DHT22;27809;51.864;5.646;2023-04-08T05:07:01;5.80;99.90
42141;DHT22;27809;51.864;5.646;2023-04-08T05:09:28;5.80;99.90
42141;DHT22;27809;51.864;5.646;2023-04-08T05:11:54;5.70;99.90
42141;DHT22;27809;51.864;5.646;2023-04-08T05:14:20;5.70;99.90
42141;DHT22;27809;51.864;5.646;2023-04-08T05:16:45;5.70;99.90
42141;DHT22;27809;51.864;5.646;2023-04-08T05:19:11;5.60;99.90
42141;DHT22;27809;51.864;5.646;2023-04-08T05:21:36;5.60;99.90
42141;DHT22;27809;51.864;5.646;2023-04-08T05:24:02;5.60;99.90
42141;DHT22;27809;51.864;5.646;2023-04-08T05:26:27;5.60;99.90
42141;DHT22;27809;51.864;5.646;2023-04-08T05:28:53;5.50;99.90
42141;DHT22;27809;51.864;5.646;2023-04-08T05:31:19;5.50;99.90
42141;DHT22;27809;51.864;5.646;2023-04-08T05:33:45;5.40;99.90
42141;DHT22;27809;51.864;5.646;2023-04-08T05:36:11;5.20;99.90
42141;DHT22;27809;51.864;5.646;2023-04-08T05:38:37;5.40;99.90
42141;DHT22;27809;51.864;5.646;2023-04-08T05:41:03;5.50;99.90
42141;DHT22;27809;51.864;5.646;2023-04-08T05:43:28;5.50;99.90
42141;DHT22;27809;51.864;5.646;2023-04-08T05:45:54;5.40;99.90
42141;DHT22;27809;51.864;5.646;2023-04-08T05:48:19;5.40;99.90
42141;DHT22;27809;51.864;5.646;2023-04-08T05:50:45;5.30;99.90
42141;DHT22;27809;51.864;5.646;2023-04-08T05:53:13;5.50;99.90
42141;DHT22;27809;51.864;5.646;2023-04-08T05:55:39;5.60;99.90
42141;DHT22;27809;51.864;5.646;2023-04-08T05:58:05;5.40;99.90
42141;DHT22;27809;51.864;5.646;2023-04-08T06:00:31;5.40;99.90
42141;DHT22;27809;51.864;5.646;2023-04-08T06:02:56;5.50;99.90
42141;DHT22;27809;51.864;5.646;2023-04-08T06:05:22;5.30;99.90
42141;DHT22;27809;51.864;5.646;2023-04-08T06:07:47;5.30;99.90
42141;DHT22;27809;51.864;5.646;2023-04-08T06:10:13;5.50;99.90
42141;DHT22;27809;51.864;5.646;2023-04-08T06:12:38;5.60;99.90
42141;DHT22;27809;51.864;5.646;2023-04-08T06:15:08;5.50;99.90
42141;DHT22;27809;51.864;5.646;2023-04-08T06:17:37;5.50;99.90
42141;DHT22;27809;51.864;5.646;2023-04-08T06:20:04;5.60;99.90
42141;DHT22;27809;51.864;5.646;2023-04-08T06:22:30;5.60;99.90
42141;DHT22;27809;51.864;5.646;2023-04-08T06:24:55;5.50;99.90
42141;DHT22;27809;51.864;5.646;2023-04-08T06:27:21;5.40;99.90
42141;DHT22;27809;51.864;5.646;2023-04-08T06:29:47;5.60;99.90
42141;DHT22;27809;51.864;5.646;2023-04-08T06:32:12;5.40;99.90
42141;DHT22;27809;51.864;5.646;2023-04-08T06:34:38;5.50;99.90
42141;DHT22;27809;51.864;5.646;2023-04-08T06:37:04;5.40;99.90
42141;DHT22;27809;51.864;5.646;2023-04-08T06:39:30;5.50;99.90
42141;DHT22;27809;51.864;5.646;2023-04-08T06:41:56;5.60;99.90
42141;DHT22;27809;51.864;5.646;2023-04-08T06:44:22;5.50;99.90
42141;DHT22;27809;51.864;5.646;2023-04-08T06:46:48;5.70;99.90
42141;DHT22;27809;51.864;5.646;2023-04-08T06:49:13;6.10;99.90
42141;DHT22;27809;51.864;5.646;2023-04-08T06:51:39;5.60;99.90
42141;DHT22;27809;51.864;5.646;2023-04-08T06:54:04;5.50;99.90
42141;DHT22;27809;51.864;5.646;2023-04-08T06:56:30;5.70;99.90
42141;DHT22;27809;51.864;5.646;2023-04-08T06:58:55;5.60;99.90
42141;DHT22;27809;51.864;5.646;2023-04-08T07:01:21;5.80;99.90
42141;DHT22;27809;51.864;5.646;2023-04-08T07:03:46;5.80;99.90
42141;DHT22;27809;51.864;5.646;2023-04-08T07:06:12;5.90;99.90
42141;DHT22;27809;51.864;5.646;2023-04-08T07:08:37;5.60;99.90
42141;DHT22;27809;51.864;5.646;2023-04-08T07:11:03;5.80;99.90
42141;DHT22;27809;51.864;5.646;2023-04-08T07:13:29;5.80;99.90
42141;DHT22;27809;51.864;5.646;2023-04-08T07:15:55;6.10;99.90
42141;DHT22;27809;51.864;5.646;2023-04-08T07:18:20;6.30;99.90
42141;DHT22;27809;51.864;5.646;2023-04-08T07:20:51;6.10;99.90
42141;DHT22;27809;51.864;5.646;2023-04-08T07:23:18;6.10;99.90
42141;DHT22;27809;51.864;5.646;2023-04-08T07:25:44;6.10;99.90
42141;DHT22;27809;51.864;5.646;2023-04-08T07:28:10;6.10;99.90
42141;DHT22;27809;51.864;5.646;2023-04-08T07:30:35;6.20;99.90
42141;DHT22;27809;51.864;5.646;2023-04-08T07:33:01;6.20;99.90
42141;DHT22;27809;51.864;5.646;2023-04-08T07:35:27;6.20;99.90
42141;DHT22;27809;51.864;5.646;2023-04-08T07:37:53;6.50;99.90
42141;DHT22;27809;51.864;5.646;2023-04-08T07:40:19;6.70;99.90
42141;DHT22;27809;51.864;5.646;2023-04-08T07:42:45;6.70;99.90
42141;DHT22;27809;51.864;5.646;2023-04-08T07:45:11;6.80;99.90
42141;DHT22;27809;51.864;5.646;2023-04-08T07:47:36;6.70;99.90
42141;DHT22;27809;51.864;5.646;2023-04-08T07:50:02;6.90;99.90
42141;DHT22;27809;51.864;5.646;2023-04-08T07:52:31;7.00;99.90
42141;DHT22;27809;51.864;5.646;2023-04-08T07:54:57;6.80;99.90
42141;DHT22;27809;51.864;5.646;2023-04-08T07:57:22;6.80;99.90
42141;DHT22;27809;51.864;5.646;2023-04-08T07:59:48;11.40;99.90
42141;DHT22;27809;51.864;5.646;2023-04-08T08:02:13;8.90;99.90
42141;DHT22;27809;51.864;5.646;2023-04-08T08:04:39;8.60;99.90
42141;DHT22;27809;51.864;5.646;2023-04-08T08:07:04;10.10;99.90
42141;DHT22;27809;51.864;5.646;2023-04-08T08:09:30;17.80;30.00
42141;DHT22;27809;51.864;5.646;2023-04-08T08:11:55;19.60;1.00
42141;DHT22;27809;51.864;5.646;2023-04-08T08:14:21;19.10;1.00
42141;DHT22;27809;51.864;5.646;2023-04-08T08:16:47;18.90;1.00
42141;DHT22;27809;51.864;5.646;2023-04-08T08:19:12;19.20;1.00
42141;DHT22;27809;51.864;5.646;2023-04-08T08:21:39;12.60;7.20
42141;DHT22;27809;51.864;5.646;2023-04-08T08:24:04;10.00;84.30
42141;DHT22;27809;51.864;5.646;2023-04-08T08:26:30;9.80;91.30
42141;DHT22;27809;51.864;5.646;2023-04-08T08:28:56;9.80;94.40
42141;DHT22;27809;51.864;5.646;2023-04-08T08:31:21;10.10;99.90
42141;DHT22;27809;51.864;5.646;2023-04-08T08:33:47;10.00;92.40
42141;DHT22;27809;51.864;5.646;2023-04-08T08:36:12;10.00;96.80
42141;DHT22;27809;51.864;5.646;2023-04-08T08:38:38;10.10;99.90
42141;DHT22;27809;51.864;5.646;2023-04-08T08:41:04;10.10;99.90
42141;DHT22;27809;51.864;5.646;2023-04-08T08:43:29;10.70;98.80
42141;DHT22;27809;51.864;5.646;2023-04-08T08:45:58;10.90;92.00
42141;DHT22;27809;51.864;5.646;2023-04-08T08:48:25;11.20;93.90
42141;DHT22;27809;51.864;5.646;2023-04-08T08:50:50;11.10;83.10
42141;DHT22;27809;51.864;5.646;2023-04-08T08:53:16;17.00;30.50
42141;DHT22;27809;51.864;5.646;2023-04-08T08:55:44;19.10;1.00
42141;DHT22;27809;51.864;5.646;2023-04-08T08:58:09;13.70;21.60
42141;DHT22;27809;51.864;5.646;2023-04-08T09:00:40;12.50;40.00
42141;DHT22;27809;51.864;5.646;2023-04-08T09:03:19;18.10;5.90
42141;DHT22;27809;51.864;5.646;2023-04-08T09:08:33;21.90;1.00
42141;DHT22;27809;51.864;5.646;2023-04-08T09:11:16;21.70;1.00
42141;DHT22;27809;51.864;5.646;2023-04-08T09:13:42;21.60;1.00
42141;DHT22;27809;51.864;5.646;2023-04-08T09:16:10;21.50;1.00
42141;DHT22;27809;51.864;5.646;2023-04-08T09:18:37;21.30;1.00
42141;DHT22;27809;51.864;5.646;2023-04-08T09:21:04;21.20;1.00
42141;DHT22;27809;51.864;5.646;2023-04-08T09:23:43;16.80;1.00
42141;DHT22;27809;51.864;5.646;2023-04-08T09:26:10;15.70;1.00
42141;DHT22;27809;51.864;5.646;2023-04-08T09:28:37;14.40;1.00
42141;DHT22;27809;51.864;5.646;2023-04-08T09:31:17;14.60;1.00
42141;DHT22;27809;51.864;5.646;2023-04-08T09:33:44;14.90;1.00
42141;DHT22;27809;51.864;5.646;2023-04-08T09:36:10;14.70;4.60
42141;DHT22;27809;51.864;5.646;2023-04-08T09:38:36;15.10;2.70
42141;DHT22;27809;51.864;5.646;2023-04-08T09:41:05;15.10;1.00
42141;DHT22;27809;51.864;5.646;2023-04-08T09:43:39;14.70;1.00
42141;DHT22;27809;51.864;5.646;2023-04-08T09:46:07;15.30;1.00
42141;DHT22;27809;51.864;5.646;2023-04-08T09:48:39;15.70;1.00
42141;DHT22;27809;51.864;5.646;2023-04-08T09:51:07;15.50;1.00
42141;DHT22;27809;51.864;5.646;2023-04-08T09:53:37;15.40;1.00
42141;DHT22;27809;51.864;5.646;2023-04-08T09:56:11;15.10;1.00
42141;DHT22;27809;51.864;5.646;2023-04-08T09:58:54;15.10;1.00
42141;DHT22;27809;51.864;5.646;2023-04-08T10:01:31;15.30;1.00
42141;DHT22;27809;51.864;5.646;2023-04-08T10:04:00;15.60;1.50
42141;DHT22;27809;51.864;5.646;2023-04-08T10:06:28;16.40;1.00
42141;DHT22;27809;51.864;5.646;2023-04-08T10:08:55;15.80;1.00
42141;DHT22;27809;51.864;5.646;2023-04-08T10:11:22;15.70;1.00
42141;DHT22;27809;51.864;5.646;2023-04-08T10:13:47;16.50;1.00
42141;DHT22;27809;51.864;5.646;2023-04-08T10:16:24;16.20;1.00
42141;DHT22;27809;51.864;5.646;2023-04-08T10:18:52;15.80;1.00
42141;DHT22;27809;51.864;5.646;2023-04-08T10:21:40;16.00;1.00
42141;DHT22;27809;51.864;5.646;2023-04-08T10:24:15;16.40;1.00
42141;DHT22;27809;51.864;5.646;2023-04-08T10:26:42;16.40;1.00
42141;DHT22;27809;51.864;5.646;2023-04-08T10:29:29;21.40;1.00
42141;DHT22;27809;51.864;5.646;2023-04-08T10:31:55;18.40;1.00
42141;DHT22;27809;51.864;5.646;2023-04-08T10:34:23;17.60;1.00
42141;DHT22;27809;51.864;5.646;2023-04-08T10:36:51;17.00;1.00
42141;DHT22;27809;51.864;5.646;2023-04-08T10:39:16;17.30;1.00
42141;DHT22;27809;51.864;5.646;2023-04-08T10:41:46;21.60;1.00
42141;DHT22;27809;51.864;5.646;2023-04-08T10:44:18;22.30;1.00
42141;DHT22;27809;51.864;5.646;2023-04-08T10:46:45;23.10;1.00
42141;DHT22;27809;51.864;5.646;2023-04-08T10:49:11;22.40;1.00
42141;DHT22;27809;51.864;5.646;2023-04-08T10:51:38;22.90;1.00
42141;DHT22;27809;51.864;5.646;2023-04-08T10:54:08;23.50;1.00
42141;DHT22;27809;51.864;5.646;2023-04-08T10:56:35;23.30;1.00
42141;DHT22;27809;51.864;5.646;2023-04-08T10:59:01;23.50;1.00
42141;DHT22;27809;51.864;5.646;2023-04-08T11:01:26;22.60;1.00
42141;DHT22;27809;51.864;5.646;2023-04-08T11:03:52;19.40;1.00
42141;DHT22;27809;51.864;5.646;2023-04-08T11:06:18;20.90;1.00
42141;DHT22;27809;51.864;5.646;2023-04-08T11:08:44;22.00;1.00
42141;DHT22;27809;51.864;5.646;2023-04-08T11:11:09;23.10;1.00
42141;DHT22;27809;51.864;5.646;2023-04-08T11:13:40;23.50;1.00
42141;DHT22;27809;51.864;5.646;2023-04-08T11:16:07;23.60;1.00
42141;DHT22;27809;51.864;5.646;2023-04-08T11:18:37;23.00;1.00
42141;DHT22;27809;51.864;5.646;2023-04-08T11:21:08;21.80;1.00
42141;DHT22;27809;51.864;5.646;2023-04-08T11:23:34;19.10;1.00
42141;DHT22;27809;51.864;5.646;2023-04-08T11:26:00;17.60;1.00
42141;DHT22;27809;51.864;5.646;2023-04-08T11:28:26;17.10;1.00
42141;DHT22;27809;51.864;5.646;2023-04-08T11:30:53;21.10;1.00
42141;DHT22;27809;51.864;5.646;2023-04-08T11:33:19;18.90;1.00
42141;DHT22;27809;51.864;5.646;2023-04-08T11:35:49;17.50;1.00
42141;DHT22;27809;51.864;5.646;2023-04-08T11:38:14;16.80;1.00
42141;DHT22;27809;51.864;5.646;2023-04-08T11:41:00;16.80;1.00
42141;DHT22;27809;51.864;5.646;2023-04-08T11:43:25;18.10;1.00
42141;DHT22;27809;51.864;5.646;2023-04-08T11:45:51;19.20;1.00
42141;DHT22;27809;51.864;5.646;2023-04-08T11:48:17;22.10;1.00
42141;DHT22;27809;51.864;5.646;2023-04-08T11:50:44;23.20;1.00
42141;DHT22;27809;51.864;5.646;2023-04-08T11:53:17;23.30;1.00
42141;DHT22;27809;51.864;5.646;2023-04-08T11:55:44;23.40;1.00
42141;DHT22;27809;51.864;5.646;2023-04-08T11:58:10;23.40;1.00
42141;DHT22;27809;51.864;5.646;2023-04-08T12:00:36;23.20;1.00
42141;DHT22;27809;51.864;5.646;2023-04-08T12:03:01;22.20;1.00
42141;DHT22;27809;51.864;5.646;2023-04-08T12:05:27;21.50;1.00
42141;DHT22;27809;51.864;5.646;2023-04-08T12:07:52;22.40;1.00
42141;DHT22;27809;51.864;5.646;2023-04-08T12:10:18;22.80;1.00
42141;DHT22;27809;51.864;5.646;2023-04-08T12:12:43;22.80;1.00
42141;DHT22;27809;51.864;5.646;2023-04-08T12:15:09;22.70;1.00
42141;DHT22;27809;51.864;5.646;2023-04-08T12:17:35;22.50;1.00
42141;DHT22;27809;51.864;5.646;2023-04-08T12:20:04;22.40;1.00
42141;DHT22;27809;51.864;5.646;2023-04-08T12:22:29;21.80;1.00
42141;DHT22;27809;51.864;5.646;2023-04-08T12:24:55;22.10;1.00
42141;DHT22;27809;51.864;5.646;2023-04-08T12:27:20;21.50;1.00
42141;DHT22;27809;51.864;5.646;2023-04-08T12:29:46;21.90;1.00
42141;DHT22;27809;51.864;5.646;2023-04-08T12:32:13;21.80;1.00
42141;DHT22;27809;51.864;5.646;2023-04-08T12:34:39;22.00;1.00
42141;DHT22;27809;51.864;5.646;2023-04-08T12:37:04;22.00;1.00
42141;DHT22;27809;51.864;5.646;2023-04-08T12:39:30;21.90;1.00
42141;DHT22;27809;51.864;5.646;2023-04-08T12:41:55;21.80;1.00
42141;DHT22;27809;51.864;5.646;2023-04-08T12:44:21;22.00;1.00
42141;DHT22;27809;51.864;5.646;2023-04-08T12:46:46;21.50;1.00
42141;DHT22;27809;51.864;5.646;2023-04-08T12:49:12;22.00;1.00
42141;DHT22;27809;51.864;5.646;2023-04-08T12:51:37;22.10;1.00
42141;DHT22;27809;51.864;5.646;2023-04-08T12:54:04;22.20;1.00
42141;DHT22;27809;51.864;5.646;2023-04-08T12:56:30;22.50;1.00
42141;DHT22;27809;51.864;5.646;2023-04-08T12:58:57;19.10;1.00
42141;DHT22;27809;51.864;5.646;2023-04-08T13:01:23;18.00;1.00
42141;DHT22;27809;51.864;5.646;2023-04-08T13:03:48;17.90;1.00
42141;DHT22;27809;51.864;5.646;2023-04-08T13:06:14;17.90;1.00
42141;DHT22;27809;51.864;5.646;2023-04-08T13:08:40;18.50;1.00
42141;DHT22;27809;51.864;5.646;2023-04-08T13:11:06;17.40;1.00
42141;DHT22;27809;51.864;5.646;2023-04-08T13:13:32;16.80;1.00
42141;DHT22;27809;51.864;5.646;2023-04-08T13:15:57;17.20;1.00
42141;DHT22;27809;51.864;5.646;2023-04-08T13:18:23;16.60;1.00
42141;DHT22;27809;51.864;5.646;2023-04-08T13:20:48;16.60;1.00
42141;DHT22;27809;51.864;5.646;2023-04-08T13:23:14;17.30;1.00
42141;DHT22;27809;51.864;5.646;2023-04-08T13:25:42;17.30;1.00
42141;DHT22;27809;51.864;5.646;2023-04-08T13:28:08;17.10;1.00
42141;DHT22;27809;51.864;5.646;2023-04-08T13:30:33;17.50;1.00
42141;DHT22;27809;51.864;5.646;2023-04-08T13:32:59;16.90;1.00
42141;DHT22;27809;51.864;5.646;2023-04-08T13:35:25;16.90;1.00
42141;DHT22;27809;51.864;5.646;2023-04-08T13:37:51;17.00;1.00
42141;DHT22;27809;51.864;5.646;2023-04-08T13:40:16;16.80;1.00
42141;DHT22;27809;51.864;5.646;2023-04-08T13:42:42;17.20;1.00
42141;DHT22;27809;51.864;5.646;2023-04-08T13:45:08;21.70;1.00
42141;DHT22;27809;51.864;5.646;2023-04-08T13:47:33;21.60;1.00
42141;DHT22;27809;51.864;5.646;2023-04-08T13:49:59;21.90;1.00
42141;DHT22;27809;51.864;5.646;2023-04-08T13:52:24;22.10;1.00
42141;DHT22;27809;51.864;5.646;2023-04-08T13:54:50;22.30;1.00
42141;DHT22;27809;51.864;5.646;2023-04-08T13:57:16;21.50;1.00
42141;DHT22;27809;51.864;5.646;2023-04-08T13:59:41;21.50;1.00
42141;DHT22;27809;51.864;5.646;2023-04-08T14:02:07;22.00;1.00
42141;DHT22;27809;51.864;5.646;2023-04-08T14:04:32;23.70;1.00
42141;DHT22;27809;51.864;5.646;2023-04-08T14:06:58;23.30;1.00
42141;DHT22;27809;51.864;5.646;2023-04-08T14:09:24;22.80;1.00
42141;DHT22;27809;51.864;5.646;2023-04-08T14:11:49;24.00;1.00
42141;DHT22;27809;51.864;5.646;2023-04-08T14:14:15;24.10;1.00
42141;DHT22;27809;51.864;5.646;2023-04-08T14:16:41;23.50;1.00
42141;DHT22;27809;51.864;5.646;2023-04-08T14:19:07;23.90;1.00
42141;DHT22;27809;51.864;5.646;2023-04-08T14:21:33;23.10;1.00
42141;DHT22;27809;51.864;5.646;2023-04-08T14:23:58;23.00;1.00
42141;DHT22;27809;51.864;5.646;2023-04-08T14:26:24;22.80;1.00
42141;DHT22;27809;51.864;5.646;2023-04-08T14:28:50;22.50;1.00
42141;DHT22;27809;51.864;5.646;2023-04-08T14:31:15;23.00;1.00
42141;DHT22;27809;51.864;5.646;2023-04-08T14:33:41;22.90;1.00
42141;DHT22;27809;51.864;5.646;2023-04-08T14:36:07;22.70;1.00
42141;DHT22;27809;51.864;5.646;2023-04-08T14:38:33;22.80;1.00
42141;DHT22;27809;51.864;5.646;2023-04-08T14:40:59;22.60;1.00
42141;DHT22;27809;51.864;5.646;2023-04-08T14:43:24;23.00;1.00
42141;DHT22;27809;51.864;5.646;2023-04-08T14:45:50;22.90;1.00
42141;DHT22;27809;51.864;5.646;2023-04-08T14:48:16;22.90;1.00
42141;DHT22;27809;51.864;5.646;2023-04-08T14:50:42;22.60;1.00
42141;DHT22;27809;51.864;5.646;2023-04-08T14:53:08;23.00;1.00
42141;DHT22;27809;51.864;5.646;2023-04-08T14:55:33;22.90;1.00
42141;DHT22;27809;51.864;5.646;2023-04-08T14:57:59;21.80;1.00
42141;DHT22;27809;51.864;5.646;2023-04-08T15:00:25;22.00;1.00
42141;DHT22;27809;51.864;5.646;2023-04-08T15:02:50;19.80;1.00
42141;DHT22;27809;51.864;5.646;2023-04-08T15:05:16;17.20;1.00
42141;DHT22;27809;51.864;5.646;2023-04-08T15:07:41;17.00;1.00
42141;DHT22;27809;51.864;5.646;2023-04-08T15:10:08;16.80;1.00
42141;DHT22;27809;51.864;5.646;2023-04-08T15:12:34;16.90;1.00
42141;DHT22;27809;51.864;5.646;2023-04-08T15:15:00;16.60;1.00
42141;DHT22;27809;51.864;5.646;2023-04-08T15:17:26;16.50;1.00
42141;DHT22;27809;51.864;5.646;2023-04-08T15:19:52;16.50;1.00
42141;DHT22;27809;51.864;5.646;2023-04-08T15:22:17;16.00;1.00
42141;DHT22;27809;51.864;5.646;2023-04-08T15:24:43;15.80;1.00
42141;DHT22;27809;51.864;5.646;2023-04-08T15:27:08;15.70;1.00
42141;DHT22;27809;51.864;5.646;2023-04-08T15:29:34;15.80;1.00
42141;DHT22;27809;51.864;5.646;2023-04-08T15:32:00;16.10;1.00
42141;DHT22;27809;51.864;5.646;2023-04-08T15:34:25;16.20;1.00
42141;DHT22;27809;51.864;5.646;2023-04-08T15:36:52;16.40;1.00
42141;DHT22;27809;51.864;5.646;2023-04-08T15:39:18;16.20;1.00
42141;DHT22;27809;51.864;5.646;2023-04-08T15:41:43;16.80;1.00
42141;DHT22;27809;51.864;5.646;2023-04-08T15:44:09;16.30;1.00
42141;DHT22;27809;51.864;5.646;2023-04-08T15:46:34;16.40;1.00
42141;DHT22;27809;51.864;5.646;2023-04-08T15:49:00;16.50;1.00